Columbia — WDE2933 — position and weather

sailwx.info

Track history (hours):
 
Tides and Currents Weather Stations Pressure Air Temp Water Temp Dewpoint Dewpoint Depression Visibility Wind Speed Wind Dir Waves Ship Positions

Columbia

Owner: Saddle Mountain Inc., Astoria, OR. More information available from US FCC via Universal Licensing System.

Last reported at 2017-Dec-11 17:00 UTC. Time now 2017-Dec-14 04:35 UTC.
Position N 46°10' W 123°55'.

Length 23 m; draft 1 m.

Type: Pilot. MMSI: 3699090.

Date/timePositionNaut miles runAvg speedWind from/ knotsBaromVisibWave heightAir tempDewpointWater temp
2017-Dec-11 17:00N 46°10' W 123°55'0 0.0
2017-Dec-11 16:30N 46°10' W 123°55'0 0.0
2017-Dec-11 16:00N 46°10' W 123°55'0 0.0
2017-Dec-11 15:30N 46°10' W 123°55'0 0.0
2017-Dec-11 15:00N 46°10' W 123°55'0 0.0
2017-Dec-11 14:30N 46°10' W 123°55'0 0.0
2017-Dec-11 14:00N 46°10' W 123°55'0 0.0
2017-Dec-11 13:31N 46°10' W 123°55'0 0.0
2017-Dec-11 13:01N 46°10' W 123°55'0 0.0
2017-Dec-11 12:31N 46°10' W 123°55'0 0.3
2017-Dec-11 12:00N 46°10' W 123°55'713.9
2017-Dec-11 11:30N 46°15' W 124°01'2 4.6
2017-Dec-11 11:00N 46°15' W 124°05'2 3.9
2017-Dec-11 10:31N 46°14' W 124°07'1 1.5
2017-Dec-11 10:01N 46°14' W 124°08'3 5.3
2017-Dec-11 09:30N 46°12' W 124°11'714.3
2017-Dec-11 09:01N 46°15' W 124°02'713.4
2017-Dec-11 08:29N 46°10' W 123°55'0 0.0
2017-Dec-11 08:01N 46°10' W 123°55'0 0.0
2017-Dec-11 07:31N 46°10' W 123°55'0 0.0
2017-Dec-11 07:00N 46°10' W 123°55'0 0.0
2017-Dec-11 06:30N 46°10' W 123°55'0 0.0
2017-Dec-11 06:00N 46°10' W 123°55'0 0.0
2017-Dec-11 05:30N 46°10' W 123°55'0 0.0
2017-Dec-11 05:00N 46°10' W 123°55'0 0.0
2017-Dec-11 04:31N 46°10' W 123°55'0 0.0
2017-Dec-11 04:00N 46°10' W 123°55'0 0.0
2017-Dec-11 03:30N 46°10' W 123°55'0 0.0
2017-Dec-11 03:00N 46°10' W 123°55'0 0.0
2017-Dec-11 02:30N 46°10' W 123°55'0 0.0
2017-Dec-11 02:00N 46°10' W 123°55'0 0.0
2017-Dec-11 01:31N 46°10' W 123°55'0 0.0
2017-Dec-11 01:00N 46°10' W 123°55'0 0.0
2017-Dec-11 00:29N 46°10' W 123°55'0 0.0
2017-Dec-11 00:00N 46°10' W 123°55'0 0.0
2017-Dec-10 23:30N 46°10' W 123°55'0 0.0
2017-Dec-10 23:00N 46°10' W 123°55'0 0.0
2017-Dec-10 22:30N 46°10' W 123°55'0 0.0
2017-Dec-10 22:00N 46°10' W 123°55'0 0.0
2017-Dec-10 21:30N 46°10' W 123°55'0 0.0
2017-Dec-10 21:00N 46°10' W 123°55'0 0.0
2017-Dec-10 20:30N 46°10' W 123°55'0 0.0
2017-Dec-10 20:00N 46°10' W 123°55'0 0.0
2017-Dec-10 19:15N 46°10' W 123°55'0 0.0
2017-Dec-10 19:00N 46°10' W 123°55'0 0.0
2017-Dec-10 18:30N 46°10' W 123°55'0 0.0
2017-Dec-10 18:00N 46°10' W 123°55'0 0.0
2017-Dec-10 17:30N 46°10' W 123°55'0 0.0
2017-Dec-10 17:00N 46°10' W 123°55'0 0.0
2017-Dec-10 16:30N 46°10' W 123°55'0 0.0
2017-Dec-10 16:00N 46°10' W 123°55'0 0.3
2017-Dec-10 15:31N 46°10' W 123°55'0 0.3
2017-Dec-10 14:56N 46°10' W 123°55'0 0.0
2017-Dec-10 14:30N 46°10' W 123°55'0 0.0
2017-Dec-10 14:00N 46°10' W 123°55'0 0.0
2017-Dec-10 13:22N 46°10' W 123°55'0 0.0
2017-Dec-10 13:00N 46°10' W 123°55'0 0.0
2017-Dec-10 12:30N 46°10' W 123°55'0 0.0
2017-Dec-10 12:00N 46°10' W 123°55'0 0.0
2017-Dec-10 11:30N 46°10' W 123°55'0 0.0
2017-Dec-10 11:00N 46°10' W 123°55'0 0.0
2017-Dec-10 10:28N 46°10' W 123°55'0 0.0
2017-Dec-10 10:00N 46°10' W 123°55'0 0.0
2017-Dec-10 09:30N 46°10' W 123°55'0 0.0
2017-Dec-10 09:00N 46°10' W 123°55'0 0.0
2017-Dec-10 08:30N 46°10' W 123°55'0 0.0
2017-Dec-10 08:00N 46°10' W 123°55'0 0.0
2017-Dec-10 07:30N 46°10' W 123°55'0 0.0
2017-Dec-10 07:00N 46°10' W 123°55'0 0.0
2017-Dec-10 06:30N 46°10' W 123°55'0 0.0
2017-Dec-10 06:00N 46°10' W 123°55'0 0.0
2017-Dec-10 05:30N 46°10' W 123°55'0 0.0
2017-Dec-10 05:00N 46°10' W 123°55'0 0.0
2017-Dec-10 04:30N 46°10' W 123°55'0 0.0
2017-Dec-10 04:00N 46°10' W 123°55'0 0.0
2017-Dec-10 03:30N 46°10' W 123°55'0 0.0
2017-Dec-10 03:00N 46°10' W 123°55'0 0.0
2017-Dec-10 02:30N 46°10' W 123°55'0 0.0
2017-Dec-10 02:00N 46°10' W 123°55'0 0.0
2017-Dec-10 01:30N 46°10' W 123°55'0 0.0
2017-Dec-10 01:00N 46°10' W 123°55'0 0.0
2017-Dec-10 00:30N 46°10' W 123°55'0 0.0
2017-Dec-10 00:00N 46°10' W 123°55'0 0.0
2017-Dec-09 23:30N 46°10' W 123°55'0 0.0
2017-Dec-09 23:00N 46°10' W 123°55'0 0.0
2017-Dec-09 22:30N 46°10' W 123°55'0 0.0
2017-Dec-09 22:00N 46°10' W 123°55'0 0.0
2017-Dec-09 21:30N 46°10' W 123°55'0 0.0
2017-Dec-09 21:01N 46°10' W 123°55'0 0.0
2017-Dec-09 20:30N 46°10' W 123°55'0 0.0
2017-Dec-09 20:00N 46°10' W 123°55'0 0.0
2017-Dec-09 19:30N 46°10' W 123°55'0 0.0
2017-Dec-09 18:57N 46°10' W 123°55'0 0.0
2017-Dec-09 18:30N 46°10' W 123°55'0 0.0
2017-Dec-09 18:00N 46°10' W 123°55'0 0.0
2017-Dec-09 17:29N 46°10' W 123°55'0 0.0
2017-Dec-09 17:00N 46°10' W 123°55'0 0.0
2017-Dec-09 16:31N 46°10' W 123°55'0 0.0
2017-Dec-09 15:58N 46°10' W 123°55'0 0.0
2017-Dec-09 15:30N 46°10' W 123°55'0 0.0
2017-Dec-09 15:00N 46°10' W 123°55'0 0.0
2017-Dec-09 14:18N 46°10' W 123°55'0 0.0
2017-Dec-09 13:48N 46°10' W 123°55'0 0.0
2017-Dec-09 13:30N 46°10' W 123°55'0 0.0
2017-Dec-09 13:00N 46°10' W 123°55'0 0.0
2017-Dec-09 12:30N 46°10' W 123°55'0 0.0
2017-Dec-09 12:00N 46°10' W 123°55'0 0.0
2017-Dec-09 11:30N 46°10' W 123°55'0 0.0
2017-Dec-09 11:00N 46°10' W 123°55'0 0.0
2017-Dec-09 10:30N 46°10' W 123°55'0 0.0
2017-Dec-09 10:00N 46°10' W 123°55'0 0.0
2017-Dec-09 09:30N 46°10' W 123°55'0 0.0
2017-Dec-09 09:00N 46°10' W 123°55'0 0.0
2017-Dec-09 08:31N 46°10' W 123°55'0 0.0
2017-Dec-09 08:00N 46°10' W 123°55'0 0.0
2017-Dec-09 07:30N 46°10' W 123°55'0 0.0
2017-Dec-09 07:00N 46°10' W 123°55'0 0.0
2017-Dec-09 06:09N 46°10' W 123°55'0 0.0
2017-Dec-09 06:00N 46°10' W 123°55'0 0.0
2017-Dec-09 05:30N 46°10' W 123°55'0 0.0
2017-Dec-09 05:00N 46°10' W 123°55'0 0.0
2017-Dec-09 04:30N 46°10' W 123°55'0 0.0
2017-Dec-09 04:00N 46°10' W 123°55'0 0.0
2017-Dec-09 03:30N 46°10' W 123°55'0 0.0
2017-Dec-09 03:00N 46°10' W 123°55'0 0.0
2017-Dec-09 02:30N 46°10' W 123°55'0 0.0
2017-Dec-09 02:00N 46°10' W 123°55'0 0.0
2017-Dec-09 01:30N 46°10' W 123°55'0 0.0
2017-Dec-09 01:00N 46°10' W 123°55'0 0.0
2017-Dec-09 00:30N 46°10' W 123°55'0 0.0
2017-Dec-09 00:00N 46°10' W 123°55'0 0.0
2017-Dec-08 23:30N 46°10' W 123°55'0 0.0
2017-Dec-08 23:00N 46°10' W 123°55'0 0.0
2017-Dec-08 22:30N 46°10' W 123°55'0 0.0
2017-Dec-08 22:00N 46°10' W 123°55'0 0.0
2017-Dec-08 21:30N 46°10' W 123°55'0 0.0
2017-Dec-08 21:00N 46°10' W 123°55'0 0.0
2017-Dec-08 20:30N 46°10' W 123°55'0 0.0
2017-Dec-08 20:01N 46°10' W 123°55'0 0.0
2017-Dec-08 19:30N 46°10' W 123°55'0 0.0
2017-Dec-08 19:00N 46°10' W 123°55'0 0.0
2017-Dec-08 18:30N 46°10' W 123°55'0 0.0
2017-Dec-08 18:00N 46°10' W 123°55'0 0.0
2017-Dec-08 17:30N 46°10' W 123°55'0 0.0
2017-Dec-08 17:00N 46°10' W 123°55'0 0.0
2017-Dec-08 16:30N 46°10' W 123°55'0 0.0
2017-Dec-08 16:00N 46°10' W 123°55'0 0.0
2017-Dec-08 15:30N 46°10' W 123°55'0 0.0
2017-Dec-08 15:00N 46°10' W 123°55'0 0.0
2017-Dec-08 14:30N 46°10' W 123°55'0 0.0
2017-Dec-08 14:00N 46°10' W 123°55'0 0.0
2017-Dec-08 13:30N 46°10' W 123°55'0 0.0
2017-Dec-08 13:00N 46°10' W 123°55'0 0.0
2017-Dec-08 12:30N 46°10' W 123°55'0 0.0
2017-Dec-08 12:00N 46°10' W 123°55'0 0.0
2017-Dec-08 11:30N 46°10' W 123°55'0 0.0
2017-Dec-08 11:00N 46°10' W 123°55'0 0.0
2017-Dec-08 10:30N 46°10' W 123°55'0 0.0
2017-Dec-08 10:00N 46°10' W 123°55'0 0.0
2017-Dec-08 09:30N 46°10' W 123°55'0 0.0
2017-Dec-08 08:59N 46°10' W 123°55'0 0.0
2017-Dec-08 08:30N 46°10' W 123°55'0 0.0
2017-Dec-08 08:00N 46°10' W 123°55'0 0.0
2017-Dec-08 07:31N 46°10' W 123°55'0 0.0
2017-Dec-08 07:00N 46°10' W 123°55'0 0.0
2017-Dec-08 06:30N 46°10' W 123°55'0 0.0
2017-Dec-08 06:01N 46°10' W 123°55'0 0.0
2017-Dec-08 05:30N 46°10' W 123°55'0 0.0
2017-Dec-08 05:00N 46°10' W 123°55'0 0.0
2017-Dec-08 04:30N 46°10' W 123°55'0 0.0
2017-Dec-08 04:00N 46°10' W 123°55'0 0.0
2017-Dec-08 03:30N 46°10' W 123°55'0 0.0
2017-Dec-08 03:00N 46°10' W 123°55'0 0.0
2017-Dec-08 02:30N 46°10' W 123°55'0 0.0
2017-Dec-08 02:00N 46°10' W 123°55'0 0.0
2017-Dec-08 01:30N 46°10' W 123°55'0 0.0
2017-Dec-08 01:00N 46°10' W 123°55'0 0.0
2017-Dec-08 00:30N 46°10' W 123°55'0 0.0
2017-Dec-08 00:00N 46°10' W 123°55'0 0.0
2017-Dec-07 23:31N 46°10' W 123°55'0 0.0
2017-Dec-07 23:00N 46°10' W 123°55'0 0.0
2017-Dec-07 22:30N 46°10' W 123°55'0 0.0
2017-Dec-07 22:00N 46°10' W 123°55'0 0.0
2017-Dec-07 21:30N 46°10' W 123°55'0 0.0
2017-Dec-07 21:00N 46°10' W 123°55'0 0.0
2017-Dec-07 20:30N 46°10' W 123°55'0 0.0
2017-Dec-07 20:00N 46°10' W 123°55'0 0.0
2017-Dec-07 19:30N 46°10' W 123°55'0 0.0
2017-Dec-07 19:00N 46°10' W 123°55'0 0.0
2017-Dec-07 18:30N 46°10' W 123°55'0 0.0
2017-Dec-07 18:00N 46°10' W 123°55'0 0.0
2017-Dec-07 17:30N 46°10' W 123°55'0 0.0
2017-Dec-07 17:00N 46°10' W 123°55'0 0.0
2017-Dec-07 16:31N 46°10' W 123°55'0 0.0
2017-Dec-07 16:00N 46°10' W 123°55'0 0.0
2017-Dec-07 15:30N 46°10' W 123°55'0 0.0
2017-Dec-07 15:00N 46°10' W 123°55'0 0.0
2017-Dec-07 14:30N 46°10' W 123°55'0 0.0
2017-Dec-07 14:00N 46°10' W 123°55'0 0.0
2017-Dec-07 13:30N 46°10' W 123°55'0 0.0
2017-Dec-07 13:00N 46°10' W 123°55'0 0.0
2017-Dec-07 12:30N 46°10' W 123°55'0 0.0
2017-Dec-07 12:00N 46°10' W 123°55'0 0.0
2017-Dec-07 11:31N 46°10' W 123°55'0 0.0
2017-Dec-07 11:00N 46°10' W 123°55'0 0.0
2017-Dec-07 10:30N 46°10' W 123°55'0 0.0
2017-Dec-07 10:00N 46°10' W 123°55'0 0.0
2017-Dec-07 09:30N 46°10' W 123°55'0 0.0
2017-Dec-07 09:00N 46°10' W 123°55'0 0.0
2017-Dec-07 08:30N 46°10' W 123°55'0 0.0
2017-Dec-07 08:00N 46°10' W 123°55'0 0.0
2017-Dec-07 07:30N 46°10' W 123°55'0 0.0
2017-Dec-07 07:00N 46°10' W 123°55'0 0.0
2017-Dec-07 06:30N 46°10' W 123°55'0 0.0
2017-Dec-07 06:00N 46°10' W 123°55'0 0.0
2017-Dec-07 05:30N 46°10' W 123°55'0 0.0
2017-Dec-07 05:01N 46°10' W 123°55'0 0.0
2017-Dec-07 04:30N 46°10' W 123°55'0 0.0
2017-Dec-07 04:00N 46°10' W 123°55'0 0.0
2017-Dec-07 03:31N 46°10' W 123°55'0 0.0
2017-Dec-07 02:38N 46°10' W 123°55'0 0.0
2017-Dec-07 02:30N 46°10' W 123°55'0 0.0
2017-Dec-07 02:00N 46°10' W 123°55'0 0.0
2017-Dec-07 01:30N 46°10' W 123°55'0 0.0
2017-Dec-07 01:00N 46°10' W 123°55'0 0.0
2017-Dec-07 00:31N 46°10' W 123°55'0 0.0
2017-Dec-07 00:00N 46°10' W 123°55'0 0.0
2017-Dec-06 23:30N 46°10' W 123°55'0 0.0
2017-Dec-06 23:00N 46°10' W 123°55'0 0.0
2017-Dec-06 22:30N 46°10' W 123°55'0 0.0
2017-Dec-06 21:59N 46°10' W 123°55'0 0.0
2017-Dec-06 21:30N 46°10' W 123°55'0 0.0
2017-Dec-06 21:00N 46°10' W 123°55'  
2017-Dec-04 10:30N 46°10' W 123°55'0 0.0
2017-Dec-04 10:01N 46°10' W 123°55'0 0.0
2017-Dec-04 09:31N 46°10' W 123°55'0 0.0
2017-Dec-04 08:49N 46°10' W 123°55'0 0.0
2017-Dec-04 08:30N 46°10' W 123°55'0 0.0
2017-Dec-04 07:50N 46°10' W 123°55'0 0.0
2017-Dec-04 07:30N 46°10' W 123°55'0 0.0
2017-Dec-04 07:00N 46°10' W 123°55'0 0.0
2017-Dec-04 06:30N 46°10' W 123°55'0 0.0
2017-Dec-04 06:01N 46°10' W 123°55'0 0.0
2017-Dec-04 05:30N 46°10' W 123°55'0 0.0
2017-Dec-04 04:57N 46°10' W 123°55'0 0.0
2017-Dec-04 04:30N 46°10' W 123°55'0 0.0
2017-Dec-04 04:00N 46°10' W 123°55'0 0.0
2017-Dec-04 03:30N 46°10' W 123°55'0 0.0
2017-Dec-04 03:00N 46°10' W 123°55'0 0.0
2017-Dec-04 02:30N 46°10' W 123°55'0 0.0
2017-Dec-04 02:00N 46°10' W 123°55'0 0.0
2017-Dec-04 01:30N 46°10' W 123°55'0 0.0
2017-Dec-04 01:00N 46°10' W 123°55'0 0.0
2017-Dec-04 00:31N 46°10' W 123°55'0 0.0
2017-Dec-04 00:01N 46°10' W 123°55'0 0.0
2017-Dec-03 23:30N 46°10' W 123°55'0 0.0
2017-Dec-03 23:00N 46°10' W 123°55'0 0.0
2017-Dec-03 22:10N 46°10' W 123°55'0 0.0
2017-Dec-03 22:00N 46°10' W 123°55'0 0.0
2017-Dec-03 21:30N 46°10' W 123°55'0 0.0
2017-Dec-03 21:00N 46°10' W 123°55'0 0.0
2017-Dec-03 20:30N 46°10' W 123°55'0 0.0
2017-Dec-03 20:00N 46°10' W 123°55'0 0.0
2017-Dec-03 19:30N 46°10' W 123°55'0 0.0
2017-Dec-03 19:00N 46°10' W 123°55'0 0.0
2017-Dec-03 18:30N 46°10' W 123°55'0 0.0
2017-Dec-03 18:00N 46°10' W 123°55'0 0.0
2017-Dec-03 17:30N 46°10' W 123°55'0 0.0
2017-Dec-03 17:00N 46°10' W 123°55'0 0.0
2017-Dec-03 16:30N 46°10' W 123°55'0 0.0
2017-Dec-03 16:00N 46°10' W 123°55'0 0.0
2017-Dec-03 15:30N 46°10' W 123°55'0 0.0
2017-Dec-03 15:00N 46°10' W 123°55'0 0.0
2017-Dec-03 14:30N 46°10' W 123°55'0 0.0
2017-Dec-03 14:00N 46°10' W 123°55'0 0.0
2017-Dec-03 13:31N 46°10' W 123°55'0 0.0
2017-Dec-03 13:01N 46°10' W 123°55'0 0.0
2017-Dec-03 12:30N 46°10' W 123°55'0 0.0
2017-Dec-03 12:01N 46°10' W 123°55'0 0.0
2017-Dec-03 11:31N 46°10' W 123°55'0 0.0
2017-Dec-03 11:01N 46°10' W 123°55'0 0.0
2017-Dec-03 10:30N 46°10' W 123°55'0 0.0
2017-Dec-03 10:01N 46°10' W 123°55'0 0.0
2017-Dec-03 09:31N 46°10' W 123°55'0 0.0
2017-Dec-03 09:01N 46°10' W 123°55'0 0.0
2017-Dec-03 08:31N 46°10' W 123°55'0 0.0
2017-Dec-03 08:01N 46°10' W 123°55'0 0.0
2017-Dec-03 07:31N 46°10' W 123°55'0 0.0
2017-Dec-03 06:59N 46°10' W 123°55'0 0.0
2017-Dec-03 06:31N 46°10' W 123°55'0 0.0
2017-Dec-03 06:00N 46°10' W 123°55'0 0.0
2017-Dec-03 05:31N 46°10' W 123°55'0 0.0
2017-Dec-03 05:00N 46°10' W 123°55'0 0.0
2017-Dec-03 04:30N 46°10' W 123°55'0 0.0
2017-Dec-03 04:00N 46°10' W 123°55'0 0.0
2017-Dec-03 03:31N 46°10' W 123°55'0 0.0
2017-Dec-03 03:01N 46°10' W 123°55'0 0.0
2017-Dec-03 02:30N 46°10' W 123°55'0 0.0
2017-Dec-03 02:01N 46°10' W 123°55'0 0.0
2017-Dec-03 01:31N 46°10' W 123°55'0 0.0
2017-Dec-03 01:00N 46°10' W 123°55'0 0.0
2017-Dec-03 00:31N 46°10' W 123°55'0 0.0
2017-Dec-03 00:00N 46°10' W 123°55'0 0.0
2017-Dec-02 23:31N 46°10' W 123°55'0 0.0
2017-Dec-02 23:01N 46°10' W 123°55'0 0.0
2017-Dec-02 22:31N 46°10' W 123°55'0 0.0
2017-Dec-02 22:01N 46°10' W 123°55'0 0.0
2017-Dec-02 21:30N 46°10' W 123°55'0 0.0
2017-Dec-02 21:01N 46°10' W 123°55'0 0.0
2017-Dec-02 20:31N 46°10' W 123°55'0 0.0
2017-Dec-02 20:01N 46°10' W 123°55'0 0.0
2017-Dec-02 19:29N 46°10' W 123°55'0 0.0
2017-Dec-02 19:01N 46°10' W 123°55'0 0.0
2017-Dec-02 18:30N 46°10' W 123°55'0 0.0
2017-Dec-02 18:01N 46°10' W 123°55'0 0.0
2017-Dec-02 17:31N 46°10' W 123°55'0 0.0
2017-Dec-02 17:01N 46°10' W 123°55'0 0.0
2017-Dec-02 16:31N 46°10' W 123°55'0 0.0
2017-Dec-02 16:00N 46°10' W 123°55'0 0.0
2017-Dec-02 15:30N 46°10' W 123°55'0 0.0
2017-Dec-02 15:01N 46°10' W 123°55'0 0.0
2017-Dec-02 14:30N 46°10' W 123°55'0 0.0
2017-Dec-02 14:01N 46°10' W 123°55'0 0.0
2017-Dec-02 13:31N 46°10' W 123°55'0 0.0
2017-Dec-02 13:00N 46°10' W 123°55'0 0.0
2017-Dec-02 12:31N 46°10' W 123°55'0 0.0
2017-Dec-02 12:01N 46°10' W 123°55'0 0.0
2017-Dec-02 11:31N 46°10' W 123°55'0 0.0
2017-Dec-02 11:01N 46°10' W 123°55'0 0.0
2017-Dec-02 10:31N 46°10' W 123°55'0 0.0
2017-Dec-02 10:01N 46°10' W 123°55'0 0.0
2017-Dec-02 09:31N 46°10' W 123°55'0 0.0
2017-Dec-02 09:01N 46°10' W 123°55'0 0.0
2017-Dec-02 08:16N 46°10' W 123°55'0 0.0
2017-Dec-02 08:01N 46°10' W 123°55'0 0.0
2017-Dec-02 07:30N 46°10' W 123°55'0 0.0
2017-Dec-02 07:01N 46°10' W 123°55'0 0.0
2017-Dec-02 06:31N 46°10' W 123°55'0 0.0
2017-Dec-02 06:00N 46°10' W 123°55'0 0.0
2017-Dec-02 05:31N 46°10' W 123°55'0 0.0
2017-Dec-02 05:00N 46°10' W 123°55'0 0.0
2017-Dec-02 04:30N 46°10' W 123°55'0 0.0
2017-Dec-02 04:00N 46°10' W 123°55'0 0.0
2017-Dec-02 03:31N 46°10' W 123°55'0 0.0
2017-Dec-02 03:00N 46°10' W 123°55'0 0.0
2017-Dec-02 02:30N 46°10' W 123°55'0 0.0
2017-Dec-02 02:01N 46°10' W 123°55'0 0.0
2017-Dec-02 01:31N 46°10' W 123°55'0 0.0
2017-Dec-02 01:01N 46°10' W 123°55'0 0.0
2017-Dec-02 00:31N 46°10' W 123°55'0 0.0
2017-Dec-02 00:01N 46°10' W 123°55'0 0.0
2017-Dec-01 23:30N 46°10' W 123°55'0 0.0
2017-Dec-01 23:01N 46°10' W 123°55'0 0.0
2017-Dec-01 22:30N 46°10' W 123°55'0 0.0
2017-Dec-01 22:00N 46°10' W 123°55'0 0.0
2017-Dec-01 21:30N 46°10' W 123°55'0 0.0
2017-Dec-01 21:01N 46°10' W 123°55'0 0.0
2017-Dec-01 20:30N 46°10' W 123°55'0 0.0
2017-Dec-01 20:01N 46°10' W 123°55'0 0.0
2017-Dec-01 19:30N 46°10' W 123°55'0 0.0
2017-Dec-01 19:00N 46°10' W 123°55'0 0.0
2017-Dec-01 18:30N 46°10' W 123°55'0 0.0
2017-Dec-01 18:01N 46°10' W 123°55'0 0.0
2017-Dec-01 17:30N 46°10' W 123°55'0 0.0
2017-Dec-01 17:01N 46°10' W 123°55'  
Track history (hours):
 
Tides and Currents Weather Stations Pressure Air Temp Water Temp Dewpoint Dewpoint Depression Visibility Wind Speed Wind Dir Waves Ship Positions

Columbia

Owner: Saddle Mountain Inc., Astoria, OR. More information available from US FCC via Universal Licensing System.

Last reported at 2017-Dec-11 17:00 UTC. Time now 2017-Dec-14 04:35 UTC.
Position N 46°10' W 123°55'.

Length 23 m; draft 1 m.

Type: Pilot. MMSI: 3699090.

Date/timePositionNaut miles runAvg speedWind from/ knotsBaromVisibWave heightAir tempDewpointWater temp
2017-Dec-11 17:00N 46°10' W 123°55'0 0.0
2017-Dec-11 16:30N 46°10' W 123°55'0 0.0
2017-Dec-11 16:00N 46°10' W 123°55'0 0.0
2017-Dec-11 15:30N 46°10' W 123°55'0 0.0
2017-Dec-11 15:00N 46°10' W 123°55'0 0.0
2017-Dec-11 14:30N 46°10' W 123°55'0 0.0
2017-Dec-11 14:00N 46°10' W 123°55'0 0.0
2017-Dec-11 13:31N 46°10' W 123°55'0 0.0
2017-Dec-11 13:01N 46°10' W 123°55'0 0.0
2017-Dec-11 12:31N 46°10' W 123°55'0 0.3
2017-Dec-11 12:00N 46°10' W 123°55'713.9
2017-Dec-11 11:30N 46°15' W 124°01'2 4.6
2017-Dec-11 11:00N 46°15' W 124°05'2 3.9
2017-Dec-11 10:31N 46°14' W 124°07'1 1.5
2017-Dec-11 10:01N 46°14' W 124°08'3 5.3
2017-Dec-11 09:30N 46°12' W 124°11'714.3
2017-Dec-11 09:01N 46°15' W 124°02'713.4
2017-Dec-11 08:29N 46°10' W 123°55'0 0.0
2017-Dec-11 08:01N 46°10' W 123°55'0 0.0
2017-Dec-11 07:31N 46°10' W 123°55'0 0.0
2017-Dec-11 07:00N 46°10' W 123°55'0 0.0
2017-Dec-11 06:30N 46°10' W 123°55'0 0.0
2017-Dec-11 06:00N 46°10' W 123°55'0 0.0
2017-Dec-11 05:30N 46°10' W 123°55'0 0.0
2017-Dec-11 05:00N 46°10' W 123°55'0 0.0
2017-Dec-11 04:31N 46°10' W 123°55'0 0.0
2017-Dec-11 04:00N 46°10' W 123°55'0 0.0
2017-Dec-11 03:30N 46°10' W 123°55'0 0.0
2017-Dec-11 03:00N 46°10' W 123°55'0 0.0
2017-Dec-11 02:30N 46°10' W 123°55'0 0.0
2017-Dec-11 02:00N 46°10' W 123°55'0 0.0
2017-Dec-11 01:31N 46°10' W 123°55'0 0.0
2017-Dec-11 01:00N 46°10' W 123°55'0 0.0
2017-Dec-11 00:29N 46°10' W 123°55'0 0.0
2017-Dec-11 00:00N 46°10' W 123°55'0 0.0
2017-Dec-10 23:30N 46°10' W 123°55'0 0.0
2017-Dec-10 23:00N 46°10' W 123°55'0 0.0
2017-Dec-10 22:30N 46°10' W 123°55'0 0.0
2017-Dec-10 22:00N 46°10' W 123°55'0 0.0
2017-Dec-10 21:30N 46°10' W 123°55'0 0.0
2017-Dec-10 21:00N 46°10' W 123°55'0 0.0
2017-Dec-10 20:30N 46°10' W 123°55'0 0.0
2017-Dec-10 20:00N 46°10' W 123°55'0 0.0
2017-Dec-10 19:15N 46°10' W 123°55'0 0.0
2017-Dec-10 19:00N 46°10' W 123°55'0 0.0
2017-Dec-10 18:30N 46°10' W 123°55'0 0.0
2017-Dec-10 18:00N 46°10' W 123°55'0 0.0
2017-Dec-10 17:30N 46°10' W 123°55'0 0.0
2017-Dec-10 17:00N 46°10' W 123°55'0 0.0
2017-Dec-10 16:30N 46°10' W 123°55'0 0.0
2017-Dec-10 16:00N 46°10' W 123°55'0 0.3
2017-Dec-10 15:31N 46°10' W 123°55'0 0.3
2017-Dec-10 14:56N 46°10' W 123°55'0 0.0
2017-Dec-10 14:30N 46°10' W 123°55'0 0.0
2017-Dec-10 14:00N 46°10' W 123°55'0 0.0
2017-Dec-10 13:22N 46°10' W 123°55'0 0.0
2017-Dec-10 13:00N 46°10' W 123°55'0 0.0
2017-Dec-10 12:30N 46°10' W 123°55'0 0.0
2017-Dec-10 12:00N 46°10' W 123°55'0 0.0
2017-Dec-10 11:30N 46°10' W 123°55'0 0.0
2017-Dec-10 11:00N 46°10' W 123°55'0 0.0
2017-Dec-10 10:28N 46°10' W 123°55'0 0.0
2017-Dec-10 10:00N 46°10' W 123°55'0 0.0
2017-Dec-10 09:30N 46°10' W 123°55'0 0.0
2017-Dec-10 09:00N 46°10' W 123°55'0 0.0
2017-Dec-10 08:30N 46°10' W 123°55'0 0.0
2017-Dec-10 08:00N 46°10' W 123°55'0 0.0
2017-Dec-10 07:30N 46°10' W 123°55'0 0.0
2017-Dec-10 07:00N 46°10' W 123°55'0 0.0
2017-Dec-10 06:30N 46°10' W 123°55'0 0.0
2017-Dec-10 06:00N 46°10' W 123°55'0 0.0
2017-Dec-10 05:30N 46°10' W 123°55'0 0.0
2017-Dec-10 05:00N 46°10' W 123°55'0 0.0
2017-Dec-10 04:30N 46°10' W 123°55'0 0.0
2017-Dec-10 04:00N 46°10' W 123°55'0 0.0
2017-Dec-10 03:30N 46°10' W 123°55'0 0.0
2017-Dec-10 03:00N 46°10' W 123°55'0 0.0
2017-Dec-10 02:30N 46°10' W 123°55'0 0.0
2017-Dec-10 02:00N 46°10' W 123°55'0 0.0
2017-Dec-10 01:30N 46°10' W 123°55'0 0.0
2017-Dec-10 01:00N 46°10' W 123°55'0 0.0
2017-Dec-10 00:30N 46°10' W 123°55'0 0.0
2017-Dec-10 00:00N 46°10' W 123°55'0 0.0
2017-Dec-09 23:30N 46°10' W 123°55'0 0.0
2017-Dec-09 23:00N 46°10' W 123°55'0 0.0
2017-Dec-09 22:30N 46°10' W 123°55'0 0.0
2017-Dec-09 22:00N 46°10' W 123°55'0 0.0
2017-Dec-09 21:30N 46°10' W 123°55'0 0.0
2017-Dec-09 21:01N 46°10' W 123°55'0 0.0
2017-Dec-09 20:30N 46°10' W 123°55'0 0.0
2017-Dec-09 20:00N 46°10' W 123°55'0 0.0
2017-Dec-09 19:30N 46°10' W 123°55'0 0.0
2017-Dec-09 18:57N 46°10' W 123°55'0 0.0
2017-Dec-09 18:30N 46°10' W 123°55'0 0.0
2017-Dec-09 18:00N 46°10' W 123°55'0 0.0
2017-Dec-09 17:29N 46°10' W 123°55'0 0.0
2017-Dec-09 17:00N 46°10' W 123°55'0 0.0
2017-Dec-09 16:31N 46°10' W 123°55'0 0.0
2017-Dec-09 15:58N 46°10' W 123°55'0 0.0
2017-Dec-09 15:30N 46°10' W 123°55'0 0.0
2017-Dec-09 15:00N 46°10' W 123°55'0 0.0
2017-Dec-09 14:18N 46°10' W 123°55'0 0.0
2017-Dec-09 13:48N 46°10' W 123°55'0 0.0
2017-Dec-09 13:30N 46°10' W 123°55'0 0.0
2017-Dec-09 13:00N 46°10' W 123°55'0 0.0
2017-Dec-09 12:30N 46°10' W 123°55'0 0.0
2017-Dec-09 12:00N 46°10' W 123°55'0 0.0
2017-Dec-09 11:30N 46°10' W 123°55'0 0.0
2017-Dec-09 11:00N 46°10' W 123°55'0 0.0
2017-Dec-09 10:30N 46°10' W 123°55'0 0.0
2017-Dec-09 10:00N 46°10' W 123°55'0 0.0
2017-Dec-09 09:30N 46°10' W 123°55'0 0.0
2017-Dec-09 09:00N 46°10' W 123°55'0 0.0
2017-Dec-09 08:31N 46°10' W 123°55'0 0.0
2017-Dec-09 08:00N 46°10' W 123°55'0 0.0
2017-Dec-09 07:30N 46°10' W 123°55'0 0.0
2017-Dec-09 07:00N 46°10' W 123°55'0 0.0
2017-Dec-09 06:09N 46°10' W 123°55'0 0.0
2017-Dec-09 06:00N 46°10' W 123°55'0 0.0
2017-Dec-09 05:30N 46°10' W 123°55'0 0.0
2017-Dec-09 05:00N 46°10' W 123°55'0 0.0
2017-Dec-09 04:30N 46°10' W 123°55'0 0.0
2017-Dec-09 04:00N 46°10' W 123°55'0 0.0
2017-Dec-09 03:30N 46°10' W 123°55'0 0.0
2017-Dec-09 03:00N 46°10' W 123°55'0 0.0
2017-Dec-09 02:30N 46°10' W 123°55'0 0.0
2017-Dec-09 02:00N 46°10' W 123°55'0 0.0
2017-Dec-09 01:30N 46°10' W 123°55'0 0.0
2017-Dec-09 01:00N 46°10' W 123°55'0 0.0
2017-Dec-09 00:30N 46°10' W 123°55'0 0.0
2017-Dec-09 00:00N 46°10' W 123°55'0 0.0
2017-Dec-08 23:30N 46°10' W 123°55'0 0.0
2017-Dec-08 23:00N 46°10' W 123°55'0 0.0
2017-Dec-08 22:30N 46°10' W 123°55'0 0.0
2017-Dec-08 22:00N 46°10' W 123°55'0 0.0
2017-Dec-08 21:30N 46°10' W 123°55'0 0.0
2017-Dec-08 21:00N 46°10' W 123°55'0 0.0
2017-Dec-08 20:30N 46°10' W 123°55'0 0.0
2017-Dec-08 20:01N 46°10' W 123°55'0 0.0
2017-Dec-08 19:30N 46°10' W 123°55'0 0.0
2017-Dec-08 19:00N 46°10' W 123°55'0 0.0
2017-Dec-08 18:30N 46°10' W 123°55'0 0.0
2017-Dec-08 18:00N 46°10' W 123°55'0 0.0
2017-Dec-08 17:30N 46°10' W 123°55'0 0.0
2017-Dec-08 17:00N 46°10' W 123°55'0 0.0
2017-Dec-08 16:30N 46°10' W 123°55'0 0.0
2017-Dec-08 16:00N 46°10' W 123°55'0 0.0
2017-Dec-08 15:30N 46°10' W 123°55'0 0.0
2017-Dec-08 15:00N 46°10' W 123°55'0 0.0
2017-Dec-08 14:30N 46°10' W 123°55'0 0.0
2017-Dec-08 14:00N 46°10' W 123°55'0 0.0
2017-Dec-08 13:30N 46°10' W 123°55'0 0.0
2017-Dec-08 13:00N 46°10' W 123°55'0 0.0
2017-Dec-08 12:30N 46°10' W 123°55'0 0.0
2017-Dec-08 12:00N 46°10' W 123°55'0 0.0
2017-Dec-08 11:30N 46°10' W 123°55'0 0.0
2017-Dec-08 11:00N 46°10' W 123°55'0 0.0
2017-Dec-08 10:30N 46°10' W 123°55'0 0.0
2017-Dec-08 10:00N 46°10' W 123°55'0 0.0
2017-Dec-08 09:30N 46°10' W 123°55'0 0.0
2017-Dec-08 08:59N 46°10' W 123°55'0 0.0
2017-Dec-08 08:30N 46°10' W 123°55'0 0.0
2017-Dec-08 08:00N 46°10' W 123°55'0 0.0
2017-Dec-08 07:31N 46°10' W 123°55'0 0.0
2017-Dec-08 07:00N 46°10' W 123°55'0 0.0
2017-Dec-08 06:30N 46°10' W 123°55'0 0.0
2017-Dec-08 06:01N 46°10' W 123°55'0 0.0
2017-Dec-08 05:30N 46°10' W 123°55'0 0.0
2017-Dec-08 05:00N 46°10' W 123°55'0 0.0
2017-Dec-08 04:30N 46°10' W 123°55'0 0.0
2017-Dec-08 04:00N 46°10' W 123°55'0 0.0
2017-Dec-08 03:30N 46°10' W 123°55'0 0.0
2017-Dec-08 03:00N 46°10' W 123°55'0 0.0
2017-Dec-08 02:30N 46°10' W 123°55'0 0.0
2017-Dec-08 02:00N 46°10' W 123°55'0 0.0
2017-Dec-08 01:30N 46°10' W 123°55'0 0.0
2017-Dec-08 01:00N 46°10' W 123°55'0 0.0
2017-Dec-08 00:30N 46°10' W 123°55'0 0.0
2017-Dec-08 00:00N 46°10' W 123°55'0 0.0
2017-Dec-07 23:31N 46°10' W 123°55'0 0.0
2017-Dec-07 23:00N 46°10' W 123°55'0 0.0
2017-Dec-07 22:30N 46°10' W 123°55'0 0.0
2017-Dec-07 22:00N 46°10' W 123°55'0 0.0
2017-Dec-07 21:30N 46°10' W 123°55'0 0.0
2017-Dec-07 21:00N 46°10' W 123°55'0 0.0
2017-Dec-07 20:30N 46°10' W 123°55'0 0.0
2017-Dec-07 20:00N 46°10' W 123°55'0 0.0
2017-Dec-07 19:30N 46°10' W 123°55'0 0.0
2017-Dec-07 19:00N 46°10' W 123°55'0 0.0
2017-Dec-07 18:30N 46°10' W 123°55'0 0.0
2017-Dec-07 18:00N 46°10' W 123°55'0 0.0
2017-Dec-07 17:30N 46°10' W 123°55'0 0.0
2017-Dec-07 17:00N 46°10' W 123°55'0 0.0
2017-Dec-07 16:31N 46°10' W 123°55'0 0.0
2017-Dec-07 16:00N 46°10' W 123°55'0 0.0
2017-Dec-07 15:30N 46°10' W 123°55'0 0.0
2017-Dec-07 15:00N 46°10' W 123°55'0 0.0
2017-Dec-07 14:30N 46°10' W 123°55'0 0.0
2017-Dec-07 14:00N 46°10' W 123°55'0 0.0
2017-Dec-07 13:30N 46°10' W 123°55'0 0.0
2017-Dec-07 13:00N 46°10' W 123°55'0 0.0
2017-Dec-07 12:30N 46°10' W 123°55'0 0.0
2017-Dec-07 12:00N 46°10' W 123°55'0 0.0
2017-Dec-07 11:31N 46°10' W 123°55'0 0.0
2017-Dec-07 11:00N 46°10' W 123°55'0 0.0
2017-Dec-07 10:30N 46°10' W 123°55'0 0.0
2017-Dec-07 10:00N 46°10' W 123°55'0 0.0
2017-Dec-07 09:30N 46°10' W 123°55'0 0.0
2017-Dec-07 09:00N 46°10' W 123°55'0 0.0
2017-Dec-07 08:30N 46°10' W 123°55'0 0.0
2017-Dec-07 08:00N 46°10' W 123°55'0 0.0
2017-Dec-07 07:30N 46°10' W 123°55'0 0.0
2017-Dec-07 07:00N 46°10' W 123°55'0 0.0
2017-Dec-07 06:30N 46°10' W 123°55'0 0.0
2017-Dec-07 06:00N 46°10' W 123°55'0 0.0
2017-Dec-07 05:30N 46°10' W 123°55'0 0.0
2017-Dec-07 05:01N 46°10' W 123°55'0 0.0
2017-Dec-07 04:30N 46°10' W 123°55'0 0.0
2017-Dec-07 04:00N 46°10' W 123°55'0 0.0
2017-Dec-07 03:31N 46°10' W 123°55'0 0.0
2017-Dec-07 02:38N 46°10' W 123°55'0 0.0
2017-Dec-07 02:30N 46°10' W 123°55'0 0.0
2017-Dec-07 02:00N 46°10' W 123°55'0 0.0
2017-Dec-07 01:30N 46°10' W 123°55'0 0.0
2017-Dec-07 01:00N 46°10' W 123°55'0 0.0
2017-Dec-07 00:31N 46°10' W 123°55'0 0.0
2017-Dec-07 00:00N 46°10' W 123°55'0 0.0
2017-Dec-06 23:30N 46°10' W 123°55'0 0.0
2017-Dec-06 23:00N 46°10' W 123°55'0 0.0
2017-Dec-06 22:30N 46°10' W 123°55'0 0.0
2017-Dec-06 21:59N 46°10' W 123°55'0 0.0
2017-Dec-06 21:30N 46°10' W 123°55'0 0.0
2017-Dec-06 21:00N 46°10' W 123°55'  
2017-Dec-04 10:30N 46°10' W 123°55'0 0.0
2017-Dec-04 10:01N 46°10' W 123°55'0 0.0
2017-Dec-04 09:31N 46°10' W 123°55'0 0.0
2017-Dec-04 08:49N 46°10' W 123°55'0 0.0
2017-Dec-04 08:30N 46°10' W 123°55'0 0.0
2017-Dec-04 07:50N 46°10' W 123°55'0 0.0
2017-Dec-04 07:30N 46°10' W 123°55'0 0.0
2017-Dec-04 07:00N 46°10' W 123°55'0 0.0
2017-Dec-04 06:30N 46°10' W 123°55'0 0.0
2017-Dec-04 06:01N 46°10' W 123°55'0 0.0
2017-Dec-04 05:30N 46°10' W 123°55'0 0.0
2017-Dec-04 04:57N 46°10' W 123°55'0 0.0
2017-Dec-04 04:30N 46°10' W 123°55'0 0.0
2017-Dec-04 04:00N 46°10' W 123°55'0 0.0
2017-Dec-04 03:30N 46°10' W 123°55'0 0.0
2017-Dec-04 03:00N 46°10' W 123°55'0 0.0
2017-Dec-04 02:30N 46°10' W 123°55'0 0.0
2017-Dec-04 02:00N 46°10' W 123°55'0 0.0
2017-Dec-04 01:30N 46°10' W 123°55'0 0.0
2017-Dec-04 01:00N 46°10' W 123°55'0 0.0
2017-Dec-04 00:31N 46°10' W 123°55'0 0.0
2017-Dec-04 00:01N 46°10' W 123°55'0 0.0
2017-Dec-03 23:30N 46°10' W 123°55'0 0.0
2017-Dec-03 23:00N 46°10' W 123°55'0 0.0
2017-Dec-03 22:10N 46°10' W 123°55'0 0.0
2017-Dec-03 22:00N 46°10' W 123°55'0 0.0
2017-Dec-03 21:30N 46°10' W 123°55'0 0.0
2017-Dec-03 21:00N 46°10' W 123°55'0 0.0
2017-Dec-03 20:30N 46°10' W 123°55'0 0.0
2017-Dec-03 20:00N 46°10' W 123°55'0 0.0
2017-Dec-03 19:30N 46°10' W 123°55'0 0.0
2017-Dec-03 19:00N 46°10' W 123°55'0 0.0
2017-Dec-03 18:30N 46°10' W 123°55'0 0.0
2017-Dec-03 18:00N 46°10' W 123°55'0 0.0
2017-Dec-03 17:30N 46°10' W 123°55'0 0.0
2017-Dec-03 17:00N 46°10' W 123°55'0 0.0
2017-Dec-03 16:30N 46°10' W 123°55'0 0.0
2017-Dec-03 16:00N 46°10' W 123°55'0 0.0
2017-Dec-03 15:30N 46°10' W 123°55'0 0.0
2017-Dec-03 15:00N 46°10' W 123°55'0 0.0
2017-Dec-03 14:30N 46°10' W 123°55'0 0.0
2017-Dec-03 14:00N 46°10' W 123°55'0 0.0
2017-Dec-03 13:31N 46°10' W 123°55'0 0.0
2017-Dec-03 13:01N 46°10' W 123°55'0 0.0
2017-Dec-03 12:30N 46°10' W 123°55'0 0.0
2017-Dec-03 12:01N 46°10' W 123°55'0 0.0
2017-Dec-03 11:31N 46°10' W 123°55'0 0.0
2017-Dec-03 11:01N 46°10' W 123°55'0 0.0
2017-Dec-03 10:30N 46°10' W 123°55'0 0.0
2017-Dec-03 10:01N 46°10' W 123°55'0 0.0
2017-Dec-03 09:31N 46°10' W 123°55'0 0.0
2017-Dec-03 09:01N 46°10' W 123°55'0 0.0
2017-Dec-03 08:31N 46°10' W 123°55'0 0.0
2017-Dec-03 08:01N 46°10' W 123°55'0 0.0
2017-Dec-03 07:31N 46°10' W 123°55'0 0.0
2017-Dec-03 06:59N 46°10' W 123°55'0 0.0
2017-Dec-03 06:31N 46°10' W 123°55'0 0.0
2017-Dec-03 06:00N 46°10' W 123°55'0 0.0
2017-Dec-03 05:31N 46°10' W 123°55'0 0.0
2017-Dec-03 05:00N 46°10' W 123°55'0 0.0
2017-Dec-03 04:30N 46°10' W 123°55'0 0.0
2017-Dec-03 04:00N 46°10' W 123°55'0 0.0
2017-Dec-03 03:31N 46°10' W 123°55'0 0.0
2017-Dec-03 03:01N 46°10' W 123°55'0 0.0
2017-Dec-03 02:30N 46°10' W 123°55'0 0.0
2017-Dec-03 02:01N 46°10' W 123°55'0 0.0
2017-Dec-03 01:31N 46°10' W 123°55'0 0.0
2017-Dec-03 01:00N 46°10' W 123°55'0 0.0
2017-Dec-03 00:31N 46°10' W 123°55'0 0.0
2017-Dec-03 00:00N 46°10' W 123°55'0 0.0
2017-Dec-02 23:31N 46°10' W 123°55'0 0.0
2017-Dec-02 23:01N 46°10' W 123°55'0 0.0
2017-Dec-02 22:31N 46°10' W 123°55'0 0.0
2017-Dec-02 22:01N 46°10' W 123°55'0 0.0
2017-Dec-02 21:30N 46°10' W 123°55'0 0.0
2017-Dec-02 21:01N 46°10' W 123°55'0 0.0
2017-Dec-02 20:31N 46°10' W 123°55'0 0.0
2017-Dec-02 20:01N 46°10' W 123°55'0 0.0
2017-Dec-02 19:29N 46°10' W 123°55'0 0.0
2017-Dec-02 19:01N 46°10' W 123°55'0 0.0
2017-Dec-02 18:30N 46°10' W 123°55'0 0.0
2017-Dec-02 18:01N 46°10' W 123°55'0 0.0
2017-Dec-02 17:31N 46°10' W 123°55'0 0.0
2017-Dec-02 17:01N 46°10' W 123°55'0 0.0
2017-Dec-02 16:31N 46°10' W 123°55'0 0.0
2017-Dec-02 16:00N 46°10' W 123°55'0 0.0
2017-Dec-02 15:30N 46°10' W 123°55'0 0.0
2017-Dec-02 15:01N 46°10' W 123°55'0 0.0
2017-Dec-02 14:30N 46°10' W 123°55'0 0.0
2017-Dec-02 14:01N 46°10' W 123°55'0 0.0
2017-Dec-02 13:31N 46°10' W 123°55'0 0.0
2017-Dec-02 13:00N 46°10' W 123°55'0 0.0
2017-Dec-02 12:31N 46°10' W 123°55'0 0.0
2017-Dec-02 12:01N 46°10' W 123°55'0 0.0
2017-Dec-02 11:31N 46°10' W 123°55'0 0.0
2017-Dec-02 11:01N 46°10' W 123°55'0 0.0
2017-Dec-02 10:31N 46°10' W 123°55'0 0.0
2017-Dec-02 10:01N 46°10' W 123°55'0 0.0
2017-Dec-02 09:31N 46°10' W 123°55'0 0.0
2017-Dec-02 09:01N 46°10' W 123°55'0 0.0
2017-Dec-02 08:16N 46°10' W 123°55'0 0.0
2017-Dec-02 08:01N 46°10' W 123°55'0 0.0
2017-Dec-02 07:30N 46°10' W 123°55'0 0.0
2017-Dec-02 07:01N 46°10' W 123°55'0 0.0
2017-Dec-02 06:31N 46°10' W 123°55'0 0.0
2017-Dec-02 06:00N 46°10' W 123°55'0 0.0
2017-Dec-02 05:31N 46°10' W 123°55'0 0.0
2017-Dec-02 05:00N 46°10' W 123°55'0 0.0
2017-Dec-02 04:30N 46°10' W 123°55'0 0.0
2017-Dec-02 04:00N 46°10' W 123°55'0 0.0
2017-Dec-02 03:31N 46°10' W 123°55'0 0.0
2017-Dec-02 03:00N 46°10' W 123°55'0 0.0
2017-Dec-02 02:30N 46°10' W 123°55'0 0.0
2017-Dec-02 02:01N 46°10' W 123°55'0 0.0
2017-Dec-02 01:31N 46°10' W 123°55'0 0.0
2017-Dec-02 01:01N 46°10' W 123°55'0 0.0
2017-Dec-02 00:31N 46°10' W 123°55'0 0.0
2017-Dec-02 00:01N 46°10' W 123°55'0 0.0
2017-Dec-01 23:30N 46°10' W 123°55'0 0.0
2017-Dec-01 23:01N 46°10' W 123°55'0 0.0
2017-Dec-01 22:30N 46°10' W 123°55'0 0.0
2017-Dec-01 22:00N 46°10' W 123°55'0 0.0
2017-Dec-01 21:30N 46°10' W 123°55'0 0.0
2017-Dec-01 21:01N 46°10' W 123°55'0 0.0
2017-Dec-01 20:30N 46°10' W 123°55'0 0.0
2017-Dec-01 20:01N 46°10' W 123°55'0 0.0
2017-Dec-01 19:30N 46°10' W 123°55'0 0.0
2017-Dec-01 19:00N 46°10' W 123°55'0 0.0
2017-Dec-01 18:30N 46°10' W 123°55'0 0.0
2017-Dec-01 18:01N 46°10' W 123°55'0 0.0
2017-Dec-01 17:30N 46°10' W 123°55'0 0.0
2017-Dec-01 17:01N 46°10' W 123°55'  

Dump ship's entire track history